• Join FlightAware (Why Join?)
  • Login
  • US Flag 
08:13PM EDT


 

Airport Tracker/Info


-or-


 

Live Flight TrackerFlight Track Log ✈ LOF3416 ✈ 17-Apr-2013 ✈ KIAD - KDAY

Flight Track Log - Related Links

Times and Time Zones

All times are in EDT time to prevent confusion due to time zone crossing. See the LOF3416 flight status page for this flight to view local times or setup timezone preferences in your user account.

Time Position Orientation Groundspeed Altitude Reporting Facility
EDT Latitude Longitude Course Direction KTS MPH feet Rate Location/Type
12:23AM 38.9500 -77.5333 263° West 196 226 1,700  Level Potomac TRACON
12:24AM 38.9397 -77.6358 263° West 220 253 4,000 2,160 Climbing Washington Center
12:25AM 38.9217 -77.7128 253° West 243 280 6,400 2,400 Climbing Washington Center
12:26AM 38.9056 -77.8111 258° West 252 290 8,800 1,860 Climbing Washington Center
12:27AM 38.9161 -77.9019 279° West 271 312 10,200 1,440 Climbing Washington Center
12:28AM 38.9308 -78.0092 280° West 298 343 11,700 1,320 Climbing Washington Center
12:29AM 38.9472 -78.1244 280° West 321 369 12,900 1,020 Climbing Washington Center
12:30AM 38.9611 -78.2506 278° West 340 391 13,800 900 Climbing Washington Center
12:31AM 38.9664 -78.3842 273° West 367 422 14,700 900 Climbing Washington Center
12:32AM 38.9717 -78.5206 273° West 379 436 15,700 960 Climbing Washington Center
12:33AM 38.9744 -78.6594 272° West 389 448 16,700 1,020 Climbing Washington Center
12:34AM 38.9792 -78.7906 273° West 383 441 17,800 1,140 Climbing Washington Center
12:35AM 38.9819 -78.9269 272° West 383 441 19,000 1,200 Climbing Washington Center
12:36AM 38.9864 -79.0608 272° West 383 441 20,300 1,320 Climbing Washington Center
12:37AM 38.9886 -79.1944 271° West 383 441 21,700 1,260 Climbing Washington Center
12:38AM 38.9928 -79.3333 272° West 388 447 22,900 1,020 Climbing Washington Center
12:39AM 38.9969 -79.4672 272° West 383 441 23,800 900 Climbing Washington Center
12:40AM 38.9981 -79.6250 271° West 396 456 24,800 900 Climbing Washington Center
12:41AM 39.0014 -79.7692 272° West 402 463 25,700 900 Climbing Washington Center
12:42AM 39.0033 -79.8922 271° West 402 463 26,600 900 Climbing Washington Center
12:43AM 39.0044 -80.0286 271° West 402 463 27,500 600 Climbing Washington Center
12:44AM 39.0053 -80.2069 270° West 392 451 28,000 180 Climbing Indianapolis Center
12:45AM 39.0239 -80.3500 280° West 414 476 28,000  Level Indianapolis Center
12:46AM 39.0558 -80.4917 286° West 417 480 28,000  Level Indianapolis Center
12:47AM 39.0922 -80.6350 288° West 424 488 28,000  Level Indianapolis Center
12:48AM 39.1275 -80.7806 287° West 426 490 28,000  Level Indianapolis Center
12:49AM 39.1631 -80.9275 287° West 431 496 28,000  Level Indianapolis Center
12:50AM 39.1989 -81.0753 287° West 432 497 28,000  Level Indianapolis Center
12:51AM 39.2347 -81.2247 287° West 438 504 28,000  Level Indianapolis Center
12:52AM 39.2706 -81.3736 287° West 439 505 28,000  Level Indianapolis Center
12:54AM 39.3050 -81.5222 287° West 437 503 28,000  Level Indianapolis Center
12:55AM 39.3403 -81.6711 287° West 435 501 28,000  Level Indianapolis Center
12:56AM 39.3756 -81.8214 287° West 438 504 28,000  Level Indianapolis Center
12:57AM 39.4158 -82.0003 286° West 435 501 28,000  Level Indianapolis Center
12:58AM 39.4475 -82.1383 287° West 435 501 28,000  Level Indianapolis Center
12:59AM 39.4822 -82.2889 287° West 433 498 28,000  Level Indianapolis Center
01:00AM 39.5167 -82.4408 286° West 436 502 28,000 -780 Level Indianapolis Center
01:01AM 39.5500 -82.5931 286° West 435 501 26,500 -1,800 Descending Indianapolis Center
01:02AM 39.5844 -82.7419 287° West 429 494 24,400 -2,100 Descending Indianapolis Center
01:03AM 39.6169 -82.8900 286° West 424 488 22,300 -2,100 Descending Indianapolis Center
01:04AM 39.6475 -83.0311 286° West 406 467 20,200 -2,160 Descending Indianapolis Center
01:05AM 39.6772 -83.1669 286° West 389 448 18,000 -2,100 Descending Indianapolis Center
01:06AM 39.7067 -83.3031 286° West 387 445 16,000 -2,100 Descending Indianapolis Center
01:07AM 39.7356 -83.4358 286° West 372 428 13,900 -1,980 Descending Indianapolis Center
01:07AM 39.7467 -83.4833 287° West 364 419 13,300 -1,500 Descending Indianapolis Center
01:08AM 39.7642 -83.5683 285° West 366 421 12,400 -1,320 Descending Indianapolis Center
01:08AM 39.7747 -83.6169 286° West 362 417 12,000 -1,020 Descending Indianapolis Center
01:09AM 39.7844 -83.6753 282° West 359 413 11,400 -1,200 Descending Indianapolis Center
01:09AM 39.7928 -83.7386 280° West 309 356 10,800 -1,500 Descending Indianapolis Center
01:10AM 39.7992 -83.7861 280° West 315 362 9,900 -1,980 Descending Indianapolis Center
01:10AM 39.8083 -83.8383 283° West 279 321 8,800 -2,220 Descending Indianapolis Center
01:11AM 39.8164 -83.8831 283° West 283 326 7,700 -2,100 Descending Indianapolis Center
01:11AM 39.8244 -83.9300 283° West 258 297 6,700 -2,220 Descending Indianapolis Center
01:12AM 39.8328 -83.9725 284° West 257 296 5,500 -1,920 Descending Indianapolis Center
01:12AM 39.8386 -84.0189 279° West 250 288 4,800 -1,320 Descending Indianapolis Center
01:13AM 39.8478 -84.0606 286° West 250 288 4,200 -840 Descending Indianapolis Center
01:13AM 39.8550 -84.1053 282° West 246 283 4,000 -720 Descending Indianapolis Center
01:14AM 39.8619 -84.1472 282° West 246 283 3,500 -300 Descending Indianapolis Center
01:14AM 39.8489 -84.1833 245° Southwest 203 234 3,700 -120 Climbing Indianapolis Center
01:15AM 39.8353 -84.2122 238° Southwest 212 244 3,400 -420 Descending Indianapolis Center
01:15AM 39.8194 -84.2364 230° Southwest 169 194 3,300 -240 Descending Indianapolis Center
01:16AM 39.8061 -84.2622 236° Southwest 188 216 3,200 -300 Descending Indianapolis Center
01:16AM 39.8197 -84.2881 304° West 183 211 3,000 -900 Descending Indianapolis Center
01:17AM 39.8458 -84.2983 343° North 199 229 2,300 -1,140 Descending Indianapolis Center
01:17AM 39.8669 -84.2972 North 179 206 1,900 -600 Descending Indianapolis Center
01:18AM 39.8817 -84.2661 58° Northeast 177 204 1,700 -720 Descending Indianapolis Center
01:18AM 39.8914 -84.2542 43° Northeast 133 153 1,200 -1,200 Descending Indianapolis Center